Airfield :







YOU CAN JOIN US ON...

 
LOGIN :

Register | Disclaimer

   EN    FR    IT 

 









Legend :    VFR   Marginal VFR   IFR   Intensive IFR   Very Intensive IFR
Visi :
Ceiling :
>= 8 km
>= 3000ft
5 to 8 km
1000 to 3000 ft
1500m to 5 km
500 to 1000 ft
800 to 1500m
200 to 500 ft
< 800m
< 200 ft
Symbols :   Thunderstorms  Fog  Heavy snow  Heavy precipitations  Wind > 20 kt






- Airport Elevation : 232 ft
- IATA code : YQM


CYQM - Greater Moncton International

CURRENT METAR :
  • 071800Z 08005KT 010V120 15SM FEW050 BKN079 03/M10 A2971 RMK CU2AC4 SLP067

EXPIRED METARs :
  • 071700Z VRB02KT 15SM FEW047 BKN073 03/M09 A2973 RMK CU2AC4 SLP072
  • 071654Z 04004KT 340V070 15SM FEW047 BKN073 03/M09 A2973 RMK CU2AC4 SLP072
  • 071600Z 34011G18KT 250V010 15SM SCT055 BKN063 03/M10 A2973 RMK CU4SC2 SLP074

TAF TAF CYQM
Valid from the 07 at 18:00 until the 08 at 18:00 UTC


071738Z 0718/0818 VRB03KT P6SM BKN040
TEMPO 0718/0720 P6SM -SHSN
FM072000 VRB03KT P6SM FEW040
BECMG 0800/0802 20006KT
BECMG 0804/0806 25006KT
FM081400 36012KT P6SM BKN050 RMK NXT FCST BY 080000Z



MET'MAP, your aeronautical weather chart ! - Copyright ORBIFLY December 2007 - Disclaimer

ORBIFLY MET'MAP TEAM :

Programming & Development : Alexandra Zaïnal
Concept & original design : Baudouin d'Aumeries
Assistance for programming : Marc-Olivier Méhu
Technical & hardware support : Manuel Goepfert

Contact : metmap@orbifly.com




SOURCES & CREDITS :

   NOAA